createdAt,value
2023-05-14T00:00:54.626Z,8.10
2023-05-14T00:05:04.172Z,8.09
2023-05-14T00:09:06.148Z,8.06
2023-05-14T00:13:08.134Z,8.06
2023-05-14T00:17:10.249Z,8.01
2023-05-14T00:21:12.581Z,7.89
2023-05-14T00:25:14.515Z,7.78
2023-05-14T00:29:16.554Z,7.62
2023-05-14T00:33:18.816Z,7.56
2023-05-14T00:37:20.813Z,7.58
2023-05-14T00:41:23.096Z,7.61
2023-05-14T00:45:25.553Z,7.57
2023-05-14T00:49:28.278Z,7.57
2023-05-14T00:53:30.761Z,7.55
2023-05-14T00:57:35.627Z,7.49
2023-05-14T01:01:37.714Z,7.41
2023-05-14T01:05:55.978Z,7.34
2023-05-14T01:10:08.571Z,7.26
2023-05-14T01:14:22.837Z,7.21
2023-05-14T01:18:25.648Z,7.12
2023-05-14T01:22:27.605Z,6.97
2023-05-14T01:26:31.131Z,6.86
2023-05-14T01:30:43.071Z,6.77
2023-05-14T01:34:48.336Z,6.67
2023-05-14T01:38:51.340Z,6.69
2023-05-14T01:42:56.052Z,6.71
2023-05-14T01:46:57.998Z,6.72
2023-05-14T01:51:00.110Z,6.63
2023-05-14T01:55:02.156Z,6.57
2023-05-14T01:59:04.158Z,6.59
2023-05-14T02:03:06.222Z,6.59
2023-05-14T02:07:08.228Z,6.56
2023-05-14T02:11:10.150Z,6.53
2023-05-14T02:15:12.239Z,6.41
2023-05-14T02:19:14.222Z,6.41
2023-05-14T02:23:16.285Z,6.41
2023-05-14T02:27:19.315Z,6.40
2023-05-14T02:31:21.340Z,6.38
2023-05-14T02:35:23.352Z,6.35
2023-05-14T02:39:25.316Z,6.30
2023-05-14T02:43:27.364Z,6.30
2023-05-14T02:47:29.438Z,6.32
2023-05-14T02:51:31.555Z,6.32
2023-05-14T02:55:33.835Z,6.27
2023-05-14T02:59:35.914Z,6.13
2023-05-14T03:03:38.083Z,6.07
2023-05-14T03:07:40.523Z,6.05
2023-05-14T03:11:42.452Z,5.95
2023-05-14T03:15:44.366Z,5.87
2023-05-14T03:19:46.376Z,5.85
2023-05-14T03:23:48.296Z,5.92
2023-05-14T03:27:50.249Z,6.01
2023-05-14T03:31:53.911Z,6.09
2023-05-14T03:35:55.903Z,6.23
2023-05-14T03:39:58.378Z,6.33
2023-05-14T03:44:00.601Z,6.45
2023-05-14T03:48:03.174Z,6.64
2023-05-14T03:52:06.193Z,6.84
2023-05-14T03:56:08.110Z,7.05
2023-05-14T04:00:11.025Z,7.29
2023-05-14T04:04:19.288Z,7.55
2023-05-14T04:08:21.204Z,7.86
2023-05-14T04:12:24.641Z,8.26
2023-05-14T04:16:26.627Z,8.71
2023-05-14T04:20:28.699Z,9.17
2023-05-14T04:24:30.776Z,9.67
2023-05-14T04:28:32.735Z,10.19
2023-05-14T04:32:34.996Z,10.79
2023-05-14T04:36:37.016Z,11.21
2023-05-14T04:40:39.094Z,11.64
2023-05-14T04:44:41.139Z,12.09
2023-05-14T04:48:43.157Z,12.64
2023-05-14T04:52:45.246Z,13.12
2023-05-14T04:56:47.317Z,13.57
2023-05-14T05:00:49.985Z,13.94
2023-05-14T05:04:52.055Z,14.38
2023-05-14T05:08:55.669Z,14.84
2023-05-14T05:12:57.687Z,15.21
2023-05-14T05:16:59.655Z,15.40
2023-05-14T05:21:01.587Z,15.54
2023-05-14T05:25:07.731Z,15.61
2023-05-14T05:29:09.843Z,15.67
2023-05-14T05:33:12.538Z,15.67
2023-05-14T05:37:14.700Z,15.60
2023-05-14T05:41:16.906Z,15.60
2023-05-14T05:45:18.911Z,15.63
2023-05-14T05:49:21.130Z,15.74
2023-05-14T05:53:23.229Z,15.89
2023-05-14T05:57:29.460Z,16.00
2023-05-14T06:01:32.500Z,16.13
2023-05-14T06:05:34.684Z,16.30
2023-05-14T06:09:36.858Z,16.44
2023-05-14T06:13:38.986Z,16.59
2023-05-14T06:17:41.095Z,16.76
2023-05-14T06:21:43.842Z,16.88
2023-05-14T06:25:45.856Z,17.03
2023-05-14T06:29:48.161Z,17.19
2023-05-14T06:33:50.195Z,17.32
2023-05-14T06:37:52.673Z,17.46
2023-05-14T06:41:54.895Z,17.66
2023-05-14T06:45:58.109Z,17.85
2023-05-14T06:50:01.472Z,17.96
2023-05-14T06:54:03.691Z,18.06
2023-05-14T06:58:09.170Z,18.20
2023-05-14T07:02:12.141Z,18.28
2023-05-14T07:06:14.185Z,18.36
2023-05-14T07:10:16.323Z,18.41
2023-05-14T07:14:18.553Z,18.51
2023-05-14T07:18:20.610Z,18.72
2023-05-14T07:22:22.525Z,18.98
2023-05-14T07:26:24.575Z,19.27
2023-05-14T07:30:26.718Z,19.49
2023-05-14T07:34:28.727Z,19.67
2023-05-14T07:38:31.250Z,19.83
2023-05-14T07:42:37.035Z,20.05
2023-05-14T07:46:39.484Z,20.35
2023-05-14T07:50:41.383Z,20.59
2023-05-14T07:54:43.288Z,20.82
2023-05-14T07:58:45.736Z,20.98
2023-05-14T08:02:48.743Z,21.10
2023-05-14T08:06:51.172Z,21.21
2023-05-14T08:10:53.166Z,21.30
2023-05-14T08:14:55.794Z,21.39
2023-05-14T08:18:57.849Z,21.54
2023-05-14T08:22:59.903Z,21.69
2023-05-14T08:27:01.947Z,21.94
2023-05-14T08:31:04.277Z,22.17
2023-05-14T08:35:06.858Z,22.36
2023-05-14T08:39:08.788Z,22.57
2023-05-14T08:43:11.789Z,22.63
2023-05-14T08:47:15.678Z,22.54
2023-05-14T08:51:17.626Z,22.52
2023-05-14T08:55:19.939Z,22.56
2023-05-14T08:59:22.050Z,22.67
2023-05-14T09:03:24.013Z,22.75
2023-05-14T09:07:26.366Z,22.86
2023-05-14T09:11:28.362Z,22.99
2023-05-14T09:15:31.402Z,23.15
2023-05-14T09:19:33.387Z,23.40
2023-05-14T09:23:35.528Z,23.58
2023-05-14T09:27:38.374Z,23.56
2023-05-14T09:31:40.781Z,23.58
2023-05-14T09:35:43.118Z,23.70
2023-05-14T09:39:45.100Z,23.78
2023-05-14T09:43:47.042Z,23.84
2023-05-14T09:47:49.089Z,23.90
2023-05-14T09:51:51.287Z,23.86
2023-05-14T09:55:53.169Z,23.96
2023-05-14T09:59:55.254Z,24.18
2023-05-14T10:03:57.229Z,24.25
2023-05-14T10:08:03.497Z,24.27
2023-05-14T10:12:06.409Z,24.31
2023-05-14T10:16:17.736Z,24.39
2023-05-14T10:20:22.418Z,24.49
2023-05-14T10:24:25.403Z,24.46
2023-05-14T10:28:27.975Z,24.33
2023-05-14T10:32:32.739Z,24.27
2023-05-14T10:36:35.273Z,24.35
2023-05-14T10:40:38.820Z,24.40
2023-05-14T10:44:48.693Z,24.39
2023-05-14T10:48:50.654Z,24.52
2023-05-14T10:52:52.699Z,24.44
2023-05-14T10:56:58.774Z,24.35
2023-05-14T11:01:01.768Z,24.33
2023-05-14T11:05:13.581Z,24.43
2023-05-14T11:09:17.365Z,24.45
2023-05-14T11:13:19.595Z,24.42
2023-05-14T11:17:21.891Z,24.51
2023-05-14T11:21:23.963Z,24.50
2023-05-14T11:25:25.986Z,24.44
2023-05-14T11:29:28.073Z,24.35
2023-05-14T11:33:30.065Z,24.30
2023-05-14T11:37:32.067Z,24.46
2023-05-14T11:41:34.070Z,24.48
2023-05-14T11:45:36.480Z,24.50
2023-05-14T11:49:38.574Z,24.40
2023-05-14T11:53:40.595Z,24.44
2023-05-14T11:57:42.659Z,24.42
2023-05-14T12:01:49.552Z,24.37
2023-05-14T12:06:00.411Z,24.46
2023-05-14T12:10:03.646Z,24.52
2023-05-14T12:14:19.211Z,24.61
2023-05-14T12:18:24.929Z,24.81
2023-05-14T12:22:29.397Z,24.91
2023-05-14T12:26:34.474Z,25.05
2023-05-14T12:30:39.378Z,25.12
2023-05-14T12:34:41.250Z,25.04
2023-05-14T12:38:43.906Z,24.87
2023-05-14T12:42:45.866Z,24.84
2023-05-14T12:46:47.818Z,25.00
2023-05-14T12:50:49.875Z,25.06
2023-05-14T12:54:51.747Z,25.13
2023-05-14T12:58:55.856Z,25.11
2023-05-14T13:02:57.764Z,25.07
2023-05-14T13:06:59.807Z,25.08
2023-05-14T13:11:01.767Z,25.10
2023-05-14T13:15:04.878Z,25.15
2023-05-14T13:19:06.974Z,25.38
2023-05-14T13:23:09.099Z,25.48
2023-05-14T13:27:11.279Z,25.47
2023-05-14T13:31:16.649Z,25.07
2023-05-14T13:35:18.771Z,24.97
2023-05-14T13:39:22.299Z,24.95
2023-05-14T13:43:24.278Z,25.05
2023-05-14T13:47:26.400Z,25.23
2023-05-14T13:51:28.368Z,25.09
2023-05-14T13:55:30.288Z,25.00
2023-05-14T13:59:32.504Z,25.11
2023-05-14T14:03:34.371Z,25.05
2023-05-14T14:07:36.354Z,25.04
2023-05-14T14:11:38.828Z,25.08
2023-05-14T14:15:40.746Z,25.07
2023-05-14T14:19:42.648Z,25.07
2023-05-14T14:23:48.053Z,25.10
2023-05-14T14:27:50.629Z,25.12
2023-05-14T14:31:52.585Z,25.11
2023-05-14T14:35:54.494Z,25.07
2023-05-14T14:39:56.416Z,25.14
2023-05-14T14:43:58.499Z,25.07
2023-05-14T14:48:22.267Z,25.07
2023-05-14T14:52:25.659Z,25.06
2023-05-14T14:56:27.638Z,25.06
2023-05-14T15:00:29.797Z,24.97
2023-05-14T15:04:33.686Z,24.89
2023-05-14T15:08:35.613Z,24.88
2023-05-14T15:12:37.825Z,24.85
2023-05-14T15:16:39.783Z,24.85
2023-05-14T15:20:41.755Z,24.74
2023-05-14T15:24:43.613Z,24.55
2023-05-14T15:28:45.526Z,24.40
2023-05-14T15:32:47.498Z,24.35
2023-05-14T15:36:49.393Z,24.32
2023-05-14T15:40:51.304Z,24.14
2023-05-14T15:44:53.245Z,23.80
2023-05-14T15:48:55.136Z,23.71
2023-05-14T15:52:57.099Z,23.70
2023-05-14T15:56:58.997Z,23.70
2023-05-14T16:01:02.243Z,23.70
2023-05-14T16:05:04.482Z,23.86
2023-05-14T16:09:06.511Z,23.94
2023-05-14T16:13:08.403Z,23.96
2023-05-14T16:17:10.690Z,23.98
2023-05-14T16:21:12.712Z,23.97
2023-05-14T16:25:14.646Z,23.82
2023-05-14T16:29:16.650Z,23.52
2023-05-14T16:33:18.580Z,23.27
2023-05-14T16:37:20.650Z,23.07
2023-05-14T16:41:22.452Z,22.84
2023-05-14T16:45:24.618Z,22.67
2023-05-14T16:49:26.904Z,22.53
2023-05-14T16:53:28.857Z,22.41
2023-05-14T16:57:31.106Z,22.29
2023-05-14T17:01:33.316Z,22.16
2023-05-14T17:05:35.316Z,22.01
2023-05-14T17:09:38.014Z,21.87
2023-05-14T17:13:39.900Z,21.74
2023-05-14T17:17:50.327Z,21.60
2023-05-14T17:21:52.508Z,21.46
2023-05-14T17:25:56.121Z,21.34
2023-05-14T17:29:58.091Z,21.22
2023-05-14T17:34:00.311Z,21.09
2023-05-14T17:38:02.778Z,20.97
2023-05-14T17:42:05.691Z,20.79
2023-05-14T17:46:07.577Z,20.65
2023-05-14T17:50:09.925Z,20.52
2023-05-14T17:54:11.818Z,20.38
2023-05-14T17:58:16.349Z,20.20
2023-05-14T18:02:18.224Z,19.98
2023-05-14T18:06:20.301Z,19.79
2023-05-14T18:10:22.192Z,19.59
2023-05-14T18:14:24.032Z,19.37
2023-05-14T18:18:26.304Z,19.14
2023-05-14T18:22:28.197Z,18.85
2023-05-14T18:26:31.265Z,18.56
2023-05-14T18:30:34.885Z,18.32
2023-05-14T18:34:36.793Z,18.11
2023-05-14T18:38:40.326Z,17.88
2023-05-14T18:42:42.368Z,17.66
2023-05-14T18:46:44.398Z,17.46
2023-05-14T18:50:46.653Z,17.32
2023-05-14T18:54:48.542Z,17.17
2023-05-14T18:58:52.275Z,17.06
2023-05-14T19:02:54.359Z,16.95
2023-05-14T19:06:56.411Z,16.83
2023-05-14T19:10:58.307Z,16.72
2023-05-14T19:15:00.659Z,16.55
2023-05-14T19:19:02.898Z,16.42
2023-05-14T19:23:04.967Z,16.29
2023-05-14T19:27:07.617Z,16.16
2023-05-14T19:31:10.640Z,16.02
2023-05-14T19:35:13.740Z,15.87
2023-05-14T19:39:15.944Z,15.71
2023-05-14T19:43:18.116Z,15.59
2023-05-14T19:47:20.174Z,15.48
2023-05-14T19:51:22.205Z,15.35
2023-05-14T19:55:24.805Z,15.21
2023-05-14T19:59:29.017Z,15.07
2023-05-14T20:03:31.725Z,14.97
2023-05-14T20:07:39.610Z,14.90
2023-05-14T20:11:42.305Z,14.81
2023-05-14T20:15:45.683Z,14.72
2023-05-14T20:19:47.814Z,14.70
2023-05-14T20:23:49.751Z,14.67
2023-05-14T20:27:52.112Z,14.61
2023-05-14T20:31:54.078Z,14.50
2023-05-14T20:35:56.103Z,14.35
2023-05-14T20:39:59.314Z,14.29
2023-05-14T20:44:01.427Z,14.18
2023-05-14T20:48:09.292Z,14.14
2023-05-14T20:52:12.461Z,14.08
2023-05-14T20:56:14.414Z,13.99
2023-05-14T21:00:16.871Z,13.92
2023-05-14T21:04:19.107Z,13.87
2023-05-14T21:08:21.162Z,13.85
2023-05-14T21:12:23.055Z,13.85
2023-05-14T21:16:25.297Z,13.85
2023-05-14T21:20:27.280Z,13.84
2023-05-14T21:24:29.176Z,13.83
2023-05-14T21:28:32.455Z,13.80
2023-05-14T21:32:34.458Z,13.79
2023-05-14T21:36:36.710Z,13.79
2023-05-14T21:40:38.689Z,13.80
2023-05-14T21:44:40.580Z,13.80
2023-05-14T21:48:42.669Z,13.82
2023-05-14T21:52:44.621Z,13.83
2023-05-14T21:56:46.848Z,13.85
2023-05-14T22:00:49.005Z,13.89
2023-05-14T22:04:50.969Z,13.98
2023-05-14T22:08:53.143Z,14.06
2023-05-14T22:12:55.262Z,14.10
2023-05-14T22:16:57.255Z,14.13
2023-05-14T22:20:59.835Z,14.15
2023-05-14T22:25:03.015Z,14.19
2023-05-14T22:29:05.128Z,14.23
2023-05-14T22:33:07.072Z,14.29
2023-05-14T22:37:09.040Z,14.38
2023-05-14T22:41:11.091Z,14.45
2023-05-14T22:45:13.133Z,14.50
2023-05-14T22:49:15.438Z,14.56
2023-05-14T22:53:17.734Z,14.61
2023-05-14T22:57:19.873Z,14.63
2023-05-14T23:01:21.964Z,14.66
2023-05-14T23:05:24.271Z,14.67
2023-05-14T23:09:26.587Z,14.70
2023-05-14T23:13:28.524Z,14.73
2023-05-14T23:17:30.488Z,14.75
2023-05-14T23:21:32.557Z,14.76
2023-05-14T23:25:34.485Z,14.75
2023-05-14T23:29:36.540Z,14.75
2023-05-14T23:33:39.497Z,14.73
2023-05-14T23:37:46.531Z,14.70
2023-05-14T23:41:48.408Z,14.67
2023-05-14T23:45:50.356Z,14.65
2023-05-14T23:49:52.323Z,14.59
2023-05-14T23:53:57.899Z,14.53
2023-05-14T23:57:59.907Z,14.45
